createdAt,value
2018-07-25T00:21:36.469Z,5.89
2018-07-25T00:21:36.661Z,4.78
2018-07-25T00:21:36.663Z,4.78
2018-07-25T00:21:36.694Z,4.78
2018-07-25T00:21:36.709Z,4.78
2018-07-25T00:27:31.492Z,4.82
2018-07-25T00:33:26.476Z,5.8
2018-07-25T00:39:21.468Z,5.03
2018-07-25T00:45:16.464Z,6.06
2018-07-25T00:51:11.472Z,5.35
2018-07-25T00:57:06.467Z,4.67
2018-07-25T01:03:01.476Z,4.34
2018-07-25T01:08:56.459Z,5.16
2018-07-25T01:14:51.485Z,5.24
2018-07-25T01:20:46.471Z,8.35
2018-07-25T01:26:41.463Z,8.97
2018-07-25T01:32:36.473Z,4.96
2018-07-25T01:38:31.512Z,5.28
2018-07-25T01:44:26.518Z,4.84
2018-07-25T01:50:21.462Z,5.51
2018-07-25T01:56:16.476Z,6.45
2018-07-25T02:02:11.490Z,5.73
2018-07-25T02:08:06.533Z,5.84
2018-07-25T02:14:01.519Z,5.11
2018-07-25T02:19:56.497Z,5.7
2018-07-25T02:25:51.493Z,4.86
2018-07-25T02:31:46.542Z,7.45
2018-07-25T02:37:41.502Z,7.98
2018-07-25T02:43:36.585Z,7.32
2018-07-25T02:49:31.512Z,6.51
2018-07-25T02:55:26.493Z,6.95
2018-07-25T03:19:06.522Z,7.06
2018-07-25T03:19:06.582Z,6.97
2018-07-25T03:19:06.595Z,6.97
2018-07-25T03:19:06.641Z,6.97
2018-07-25T03:25:01.524Z,5.96
2018-07-25T03:30:56.521Z,7.4
2018-07-25T03:36:51.497Z,9.42
2018-07-25T03:42:46.561Z,6.32
2018-07-25T03:48:41.511Z,7.07
2018-07-25T03:54:36.528Z,6.76
2018-07-25T04:00:31.560Z,7.26
2018-07-25T04:06:26.536Z,7.18
2018-07-25T04:12:21.520Z,6.42
2018-07-25T04:18:16.520Z,7.09
2018-07-25T04:24:11.522Z,7.35
2018-07-25T04:30:06.510Z,8.32
2018-07-25T04:36:01.553Z,6.13
2018-07-25T04:41:56.587Z,6.45
2018-07-25T04:47:51.533Z,6.85
2018-07-25T04:53:46.542Z,7.22
2018-07-25T04:59:41.582Z,11.55
2018-07-25T05:05:36.547Z,7.53
2018-07-25T05:11:31.525Z,7.37
2018-07-25T05:17:26.566Z,9.06
2018-07-25T05:23:21.629Z,6.58
2018-07-25T05:29:16.575Z,7.15
2018-07-25T05:35:11.542Z,9.68
2018-07-25T05:41:06.572Z,10.36
2018-07-25T05:47:01.612Z,13.9
2018-07-25T05:52:56.575Z,12.51
2018-07-25T06:22:31.571Z,14.51
2018-07-25T06:22:31.641Z,18.36
2018-07-25T06:22:31.663Z,18.36
2018-07-25T06:22:31.699Z,18.36
2018-07-25T06:22:31.705Z,18.36
2018-07-25T06:28:26.567Z,28.77
2018-07-25T06:34:21.570Z,16.7
2018-07-25T06:40:16.587Z,13.63
2018-07-25T06:46:11.539Z,12.05
2018-07-25T06:52:06.563Z,13.41
2018-07-25T06:58:01.582Z,11.35
2018-07-25T07:03:56.551Z,14.42
2018-07-25T07:09:51.572Z,10.33
2018-07-25T07:15:46.613Z,10.03
2018-07-25T07:21:41.627Z,10.57
2018-07-25T07:27:36.644Z,9.65
2018-07-25T07:33:31.641Z,9.66
2018-07-25T07:39:26.581Z,9.44
2018-07-25T07:45:21.626Z,7.65
2018-07-25T07:51:16.589Z,9.12
2018-07-25T07:57:11.614Z,6.88
2018-07-25T08:03:06.639Z,6.73
2018-07-25T08:09:01.671Z,7.24
2018-07-25T08:14:56.617Z,6.61
2018-07-25T08:20:51.618Z,9.8
2018-07-25T08:26:46.604Z,7.52
2018-07-25T08:32:41.624Z,8.95
2018-07-25T08:38:36.613Z,9.37
2018-07-25T08:44:31.702Z,8
2018-07-25T08:50:26.763Z,10.2
2018-07-25T08:56:21.605Z,8.97
2018-07-25T09:20:01.734Z,7.83
2018-07-25T09:20:01.890Z,6.54
2018-07-25T09:20:01.893Z,6.54
2018-07-25T09:20:01.958Z,6.54
2018-07-25T09:25:56.647Z,7.37
2018-07-25T09:31:51.612Z,10.61
2018-07-25T09:37:46.699Z,7.85
2018-07-25T09:43:41.653Z,6.93
2018-07-25T09:49:36.674Z,7.87
2018-07-25T09:55:31.667Z,7.21
2018-07-25T10:01:26.670Z,8.57
2018-07-25T10:07:21.714Z,7.46
2018-07-25T10:13:16.709Z,6.54
2018-07-25T10:19:11.654Z,6.75
2018-07-25T10:25:06.662Z,9.33
2018-07-25T10:31:01.675Z,11.39
2018-07-25T10:36:56.667Z,6.19
2018-07-25T10:42:51.692Z,5.94
2018-07-25T10:48:46.662Z,6.03
2018-07-25T10:54:41.673Z,7.8
2018-07-25T11:00:36.811Z,6.04
2018-07-25T11:06:31.699Z,8.44
2018-07-25T11:12:26.665Z,6.82
2018-07-25T11:18:21.681Z,8.53
2018-07-25T11:24:16.706Z,5.78
2018-07-25T11:30:11.708Z,6.61
2018-07-25T11:36:06.687Z,7.12
2018-07-25T11:42:01.772Z,7.19
2018-07-25T11:47:56.719Z,7.13
2018-07-25T11:53:51.703Z,6.93
2018-07-25T12:23:26.704Z,8.67
2018-07-25T12:23:26.897Z,7.64
2018-07-25T12:23:26.901Z,7.64
2018-07-25T12:23:26.952Z,7.64
2018-07-25T12:23:26.957Z,7.64
2018-07-25T12:29:21.746Z,6.44
2018-07-25T12:35:16.744Z,10.16
2018-07-25T12:41:11.734Z,7.5
2018-07-25T12:47:06.735Z,5.74
2018-07-25T12:53:01.727Z,7.05
2018-07-25T12:58:56.733Z,7.93
2018-07-25T13:04:51.771Z,6.85
2018-07-25T13:10:46.789Z,10.17
2018-07-25T13:16:41.744Z,6.66
2018-07-25T13:22:36.826Z,8.68
2018-07-25T13:28:31.807Z,6.6
2018-07-25T13:34:26.815Z,11.03
2018-07-25T13:40:21.787Z,9.11
2018-07-25T13:46:17.049Z,10.08
2018-07-25T13:52:11.745Z,10.12
2018-07-25T13:58:06.749Z,10.56
2018-07-25T14:04:01.764Z,8.49
2018-07-25T14:09:56.738Z,7.84
2018-07-25T14:15:51.750Z,11.22
2018-07-25T14:21:46.771Z,8.85
2018-07-25T14:27:41.804Z,9.34
2018-07-25T14:33:36.752Z,10.35
2018-07-25T14:39:31.774Z,9.11
2018-07-25T14:45:26.825Z,8.5
2018-07-25T14:51:22.398Z,6.23
2018-07-25T14:57:16.793Z,6.37
2018-07-25T15:20:56.803Z,7.5
2018-07-25T15:20:56.827Z,5.66
2018-07-25T15:20:56.847Z,5.66
2018-07-25T15:20:56.930Z,5.66
2018-07-25T15:26:51.791Z,7.6
2018-07-25T15:32:46.806Z,4.87
2018-07-25T15:38:41.776Z,6.18
2018-07-25T15:44:36.930Z,5.01
2018-07-25T15:50:31.898Z,7.07
2018-07-25T15:56:26.839Z,7.63
2018-07-25T16:02:21.836Z,7.69
2018-07-25T16:08:16.814Z,7.92
2018-07-25T16:14:11.809Z,6.96
2018-07-25T16:20:06.827Z,5.5
2018-07-25T16:26:01.845Z,6.57
2018-07-25T16:31:56.902Z,6.16
2018-07-25T16:37:51.808Z,6.16
2018-07-25T16:43:46.872Z,5.77
2018-07-25T16:49:41.820Z,7.16
2018-07-25T16:55:36.855Z,6.01
2018-07-25T17:01:32.015Z,5.25
2018-07-25T17:07:26.855Z,5.41
2018-07-25T17:13:21.881Z,5.91
2018-07-25T17:19:16.877Z,7.73
2018-07-25T17:25:11.851Z,7.7
2018-07-25T17:31:06.841Z,8.68
2018-07-25T17:37:01.903Z,7.35
2018-07-25T17:42:56.866Z,6.4
2018-07-25T17:48:51.872Z,6.34
2018-07-25T17:54:46.849Z,7.94
2018-07-25T18:24:21.924Z,8.34
2018-07-25T18:24:21.928Z,7.65
2018-07-25T18:24:21.967Z,8.34
2018-07-25T18:24:21.985Z,8.34
2018-07-25T18:24:22.028Z,8.34
2018-07-25T18:30:16.861Z,8.55
2018-07-25T18:36:11.874Z,7.81
2018-07-25T18:42:06.860Z,6.84
2018-07-25T18:48:01.872Z,6.6
2018-07-25T18:53:56.913Z,8.14
2018-07-25T18:59:51.893Z,7.02
2018-07-25T19:05:46.938Z,6.98
2018-07-25T19:11:41.898Z,9.92
2018-07-25T19:17:36.904Z,11.14
2018-07-25T19:23:31.910Z,12.01
2018-07-25T19:29:26.897Z,11.64
2018-07-25T19:35:21.955Z,13.3
2018-07-25T19:41:16.903Z,18.07
2018-07-25T19:47:11.965Z,14.09
2018-07-25T19:53:06.934Z,21.14
2018-07-25T19:59:01.897Z,20.96
2018-07-25T20:04:56.896Z,15.19
2018-07-25T20:10:51.899Z,26.61
2018-07-25T20:16:46.940Z,26.32
2018-07-25T20:22:41.895Z,28.12
2018-07-25T20:28:36.989Z,26.45
2018-07-25T20:34:31.937Z,26.01
2018-07-25T20:40:26.932Z,29.13
2018-07-25T20:46:21.958Z,13.77
2018-07-25T20:52:16.924Z,22.84
2018-07-25T20:58:11.950Z,21.19
2018-07-25T21:21:52.037Z,15.49
2018-07-25T21:21:52.141Z,20.72
2018-07-25T21:21:52.141Z,21.05
2018-07-25T21:21:52.239Z,20.72
2018-07-25T21:27:46.930Z,22.35
2018-07-25T21:33:42.091Z,24.12
2018-07-25T21:39:37.008Z,20.34
2018-07-25T21:45:31.938Z,23.16
2018-07-25T21:51:26.931Z,24.61
2018-07-25T21:57:21.999Z,27.94
2018-07-25T22:03:16.940Z,22.04
2018-07-25T22:09:11.947Z,15.86
2018-07-25T22:15:06.948Z,16.71
2018-07-25T22:21:01.953Z,15.37
2018-07-25T22:26:56.945Z,17.29
2018-07-25T22:32:51.990Z,16.23
2018-07-25T22:38:46.955Z,13.66
2018-07-25T22:44:42.049Z,13.57
2018-07-25T22:50:37.018Z,11.78
2018-07-25T22:56:32.043Z,9.61
2018-07-25T23:02:26.952Z,9.23
2018-07-25T23:08:22.015Z,12.84
2018-07-25T23:14:16.986Z,13.63
2018-07-25T23:20:12.018Z,11.53
2018-07-25T23:26:07.014Z,16.29
2018-07-25T23:32:02.020Z,9.98
2018-07-25T23:37:57.033Z,13.95
2018-07-25T23:43:52.043Z,11.83
2018-07-25T23:49:47.032Z,9.58
2018-07-25T23:55:42.126Z,12.01
